createdAt,value
2023-04-18T00:00:46.723Z,0.00
2023-04-18T00:01:46.767Z,0.00
2023-04-18T00:02:46.796Z,0.00
2023-04-18T00:03:46.782Z,0.00
2023-04-18T00:04:46.857Z,0.00
2023-04-18T00:05:46.622Z,0.00
2023-04-18T00:06:46.623Z,0.00
2023-04-18T00:07:46.616Z,0.00
2023-04-18T00:08:46.581Z,0.00
2023-04-18T00:09:46.562Z,0.00
2023-04-18T00:10:46.539Z,0.00
2023-04-18T00:11:46.531Z,0.00
2023-04-18T00:12:46.536Z,0.00
2023-04-18T00:13:46.490Z,0.00
2023-04-18T00:14:46.479Z,0.00
2023-04-18T00:15:46.448Z,0.00
2023-04-18T00:16:46.526Z,0.00
2023-04-18T00:17:46.495Z,0.00
2023-04-18T00:18:46.410Z,0.00
2023-04-18T00:19:46.382Z,0.00
2023-04-18T00:20:46.379Z,0.00
2023-04-18T00:21:46.347Z,0.00
2023-04-18T00:22:46.384Z,0.00
2023-04-18T00:23:46.320Z,0.00
2023-04-18T00:24:46.305Z,0.00
2023-04-18T00:25:46.282Z,0.00
2023-04-18T00:26:46.273Z,0.00
2023-04-18T00:27:46.271Z,0.00
2023-04-18T00:28:46.230Z,0.00
2023-04-18T00:29:46.260Z,0.00
2023-04-18T00:30:46.220Z,0.00
2023-04-18T00:31:46.181Z,0.00
2023-04-18T00:32:46.243Z,0.00
2023-04-18T00:33:46.144Z,0.00
2023-04-18T00:34:46.171Z,0.00
2023-04-18T00:35:46.112Z,0.00
2023-04-18T00:36:46.106Z,0.00
2023-04-18T00:37:46.075Z,0.00
2023-04-18T00:38:46.110Z,0.00
2023-04-18T00:39:46.040Z,0.00
2023-04-18T00:40:46.103Z,0.00
2023-04-18T00:41:46.011Z,0.00
2023-04-18T00:42:45.997Z,0.00
2023-04-18T00:43:45.972Z,0.00
2023-04-18T00:44:45.960Z,0.00
2023-04-18T00:45:45.986Z,0.00
2023-04-18T00:46:45.980Z,0.00
2023-04-18T00:47:45.960Z,0.00
2023-04-18T00:48:45.899Z,0.00
2023-04-18T00:49:45.875Z,0.00
2023-04-18T00:50:45.921Z,0.00
2023-04-18T00:51:45.839Z,0.00
2023-04-18T00:52:45.835Z,0.00
2023-04-18T00:53:45.803Z,0.00
2023-04-18T00:54:45.789Z,0.00
2023-04-18T00:55:45.790Z,0.00
2023-04-18T00:56:45.779Z,0.00
2023-04-18T00:57:45.777Z,0.00
2023-04-18T00:58:45.718Z,0.00
2023-04-18T00:59:45.725Z,0.00
2023-04-18T01:00:45.687Z,0.00
2023-04-18T01:01:45.715Z,0.00
2023-04-18T01:02:45.755Z,0.00
2023-04-18T01:03:45.746Z,0.00
2023-04-18T01:04:45.621Z,0.00
2023-04-18T01:05:45.596Z,0.00
2023-04-18T01:06:45.644Z,0.00
2023-04-18T01:07:45.609Z,0.00
2023-04-18T01:08:45.570Z,0.00
2023-04-18T01:09:45.533Z,0.00
2023-04-18T01:10:45.555Z,0.00
2023-04-18T01:11:45.498Z,0.00
2023-04-18T01:12:45.491Z,0.00
2023-04-18T01:13:45.484Z,0.00
2023-04-18T01:14:45.445Z,0.00
2023-04-18T01:15:45.468Z,0.00
2023-04-18T01:16:45.408Z,0.00
2023-04-18T01:17:45.424Z,0.00
2023-04-18T01:18:45.390Z,0.00
2023-04-18T01:19:45.390Z,0.00
2023-04-18T01:20:45.341Z,0.00
2023-04-18T01:21:45.324Z,0.00
2023-04-18T01:22:45.304Z,0.00
2023-04-18T01:23:45.333Z,0.00
2023-04-18T01:24:45.280Z,0.00
2023-04-18T01:25:45.260Z,0.00
2023-04-18T01:26:45.250Z,0.00
2023-04-18T01:27:45.221Z,0.00
2023-04-18T01:28:45.201Z,0.00
2023-04-18T01:29:45.199Z,0.00
2023-04-18T01:30:45.167Z,0.00
2023-04-18T01:31:45.195Z,0.00
2023-04-18T01:32:45.166Z,0.00
2023-04-18T01:33:45.123Z,0.00
2023-04-18T01:34:45.164Z,0.00
2023-04-18T01:35:45.082Z,0.00
2023-04-18T01:36:45.066Z,0.00
2023-04-18T01:37:45.048Z,0.00
2023-04-18T01:38:45.035Z,0.00
2023-04-18T01:39:45.059Z,0.00
2023-04-18T01:40:45.030Z,0.00
2023-04-18T01:41:44.987Z,0.00
2023-04-18T01:42:44.967Z,0.00
2023-04-18T01:43:44.944Z,0.00
2023-04-18T01:44:44.924Z,0.00
2023-04-18T01:45:44.968Z,0.00
2023-04-18T01:46:44.917Z,0.00
2023-04-18T01:47:44.900Z,0.00
2023-04-18T01:48:44.859Z,0.00
2023-04-18T01:49:44.860Z,0.00
2023-04-18T01:50:44.830Z,0.00
2023-04-18T01:51:44.823Z,0.00
2023-04-18T01:52:44.810Z,0.00
2023-04-18T01:53:44.775Z,0.00
2023-04-18T01:54:44.753Z,0.00
2023-04-18T01:55:44.739Z,0.00
2023-04-18T01:56:44.755Z,0.00
2023-04-18T01:57:44.761Z,0.00
2023-04-18T01:58:44.689Z,0.00
2023-04-18T01:59:44.666Z,0.00
2023-04-18T02:00:44.669Z,0.00
2023-04-18T02:01:44.737Z,0.00
2023-04-18T02:02:44.738Z,0.00
2023-04-18T02:03:44.775Z,0.00
2023-04-18T02:04:44.585Z,0.00
2023-04-18T02:05:44.568Z,0.00
2023-04-18T02:06:44.587Z,0.00
2023-04-18T02:07:44.530Z,0.00
2023-04-18T02:08:44.513Z,0.00
2023-04-18T02:09:44.497Z,0.00
2023-04-18T02:10:44.515Z,0.00
2023-04-18T02:11:44.464Z,0.00
2023-04-18T02:12:44.471Z,0.00
2023-04-18T02:13:44.454Z,0.00
2023-04-18T02:14:44.437Z,0.00
2023-04-18T02:15:44.394Z,0.00
2023-04-18T02:16:44.431Z,0.00
2023-04-18T02:17:44.416Z,0.00
2023-04-18T02:18:44.354Z,0.00
2023-04-18T02:19:44.370Z,0.00
2023-04-18T02:20:44.308Z,0.00
2023-04-18T02:21:44.296Z,0.00
2023-04-18T02:22:44.280Z,0.00
2023-04-18T02:23:44.256Z,0.00
2023-04-18T02:24:44.274Z,0.00
2023-04-18T02:25:44.221Z,0.00
2023-04-18T02:26:44.206Z,0.00
2023-04-18T02:27:44.190Z,0.00
2023-04-18T02:28:44.181Z,0.00
2023-04-18T02:29:44.217Z,0.00
2023-04-18T02:30:44.132Z,0.00
2023-04-18T02:31:44.138Z,0.00
2023-04-18T02:32:44.165Z,0.00
2023-04-18T02:33:44.093Z,0.00
2023-04-18T02:34:44.068Z,0.00
2023-04-18T02:35:44.050Z,0.00
2023-04-18T02:36:44.030Z,0.00
2023-04-18T02:37:44.048Z,0.00
2023-04-18T02:38:43.996Z,0.00
2023-04-18T02:39:43.977Z,0.00
2023-04-18T02:40:43.965Z,0.00
2023-04-18T02:41:43.944Z,0.00
2023-04-18T02:42:43.930Z,0.00
2023-04-18T02:43:43.909Z,0.00
2023-04-18T02:44:43.896Z,0.00
2023-04-18T02:45:43.952Z,0.00
2023-04-18T02:46:43.856Z,0.00
2023-04-18T02:47:54.746Z,0.00
2023-04-18T02:48:43.820Z,0.00
2023-04-18T02:49:43.813Z,0.00
2023-04-18T02:50:43.791Z,0.00
2023-04-18T02:51:43.793Z,0.00
2023-04-18T02:52:43.751Z,0.00
2023-04-18T02:53:43.758Z,0.00
2023-04-18T02:54:43.726Z,0.00
2023-04-18T02:55:43.696Z,0.00
2023-04-18T02:56:43.707Z,0.00
2023-04-18T02:57:43.660Z,0.00
2023-04-18T02:58:43.644Z,0.00
2023-04-18T02:59:43.630Z,0.00
2023-04-18T03:00:43.621Z,0.00
2023-04-18T03:01:43.680Z,0.00
2023-04-18T03:02:43.777Z,0.00
2023-04-18T03:03:43.582Z,0.00
2023-04-18T03:04:43.636Z,0.00
2023-04-18T03:05:43.534Z,0.00
2023-04-18T03:06:43.510Z,0.00
2023-04-18T03:07:43.501Z,0.00
2023-04-18T03:08:43.481Z,0.00
2023-04-18T03:09:43.480Z,0.00
2023-04-18T03:10:43.434Z,0.00
2023-04-18T03:11:43.416Z,0.00
2023-04-18T03:12:43.404Z,0.00
2023-04-18T03:13:43.381Z,0.00
2023-04-18T03:14:43.403Z,0.00
2023-04-18T03:15:43.400Z,0.00
2023-04-18T03:16:43.343Z,0.00
2023-04-18T03:17:43.332Z,0.00
2023-04-18T03:18:43.302Z,0.00
2023-04-18T03:19:43.276Z,0.00
2023-04-18T03:20:43.294Z,0.00
2023-04-18T03:21:43.242Z,0.00
2023-04-18T03:22:43.225Z,0.00
2023-04-18T03:23:43.209Z,0.00
2023-04-18T03:24:43.216Z,0.00
2023-04-18T03:25:43.197Z,0.00
2023-04-18T03:26:43.169Z,0.00
2023-04-18T03:27:43.162Z,0.00
2023-04-18T03:28:43.131Z,0.00
2023-04-18T03:29:43.111Z,0.00
2023-04-18T03:30:43.170Z,0.00
2023-04-18T03:31:43.204Z,0.00
2023-04-18T03:32:43.084Z,0.00
2023-04-18T03:33:43.032Z,0.00
2023-04-18T03:34:43.013Z,0.00
2023-04-18T03:35:42.998Z,0.00
2023-04-18T03:36:43.039Z,0.00
2023-04-18T03:37:42.962Z,0.00
2023-04-18T03:38:42.952Z,0.00
2023-04-18T03:39:42.954Z,0.00
2023-04-18T03:40:42.908Z,0.00
2023-04-18T03:41:42.900Z,0.00
2023-04-18T03:42:42.926Z,0.00
2023-04-18T03:43:42.859Z,0.00
2023-04-18T03:44:42.839Z,0.00
2023-04-18T03:45:42.820Z,0.00
2023-04-18T03:46:42.895Z,0.00
2023-04-18T03:47:42.835Z,0.00
2023-04-18T03:48:42.773Z,0.00
2023-04-18T03:49:42.750Z,0.00
2023-04-18T03:50:42.766Z,0.00
2023-04-18T03:51:42.719Z,0.00
2023-04-18T03:52:42.730Z,0.00
2023-04-18T03:53:42.680Z,0.00
2023-04-18T03:54:42.661Z,0.00
2023-04-18T03:55:42.655Z,0.00
2023-04-18T03:56:42.628Z,0.00
2023-04-18T03:57:42.668Z,0.00
2023-04-18T03:58:42.599Z,0.00
2023-04-18T03:59:42.593Z,0.00
2023-04-18T04:00:42.565Z,0.00
2023-04-18T04:01:42.582Z,0.00
2023-04-18T04:02:42.640Z,0.00
2023-04-18T04:03:42.761Z,0.00
2023-04-18T04:04:42.566Z,0.00
2023-04-18T04:05:42.472Z,4.00
2023-04-18T04:06:42.473Z,0.00
2023-04-18T04:07:42.444Z,0.00
2023-04-18T04:08:42.423Z,0.00
2023-04-18T04:09:42.441Z,0.00
2023-04-18T04:10:42.384Z,4.00
2023-04-18T04:11:42.377Z,0.00
2023-04-18T04:12:42.353Z,4.00
2023-04-18T04:13:42.343Z,4.00
2023-04-18T04:14:42.324Z,4.00
2023-04-18T04:15:42.335Z,4.00
2023-04-18T04:16:42.303Z,4.00
2023-04-18T04:17:42.319Z,4.00
2023-04-18T04:18:42.249Z,8.00
2023-04-18T04:19:42.228Z,8.00
2023-04-18T04:20:42.244Z,8.00
2023-04-18T04:21:42.198Z,8.00
2023-04-18T04:22:42.197Z,8.00
2023-04-18T04:23:42.177Z,12.00
2023-04-18T04:24:42.164Z,12.00
2023-04-18T04:25:42.151Z,12.00
2023-04-18T04:26:42.107Z,12.00
2023-04-18T04:27:42.117Z,16.00
2023-04-18T04:28:42.077Z,16.00
2023-04-18T04:29:42.052Z,16.00
2023-04-18T04:30:42.069Z,20.00
2023-04-18T04:31:42.125Z,24.00
2023-04-18T04:32:42.106Z,28.00
2023-04-18T04:33:41.976Z,32.00
2023-04-18T04:34:41.975Z,36.00
2023-04-18T04:35:41.948Z,40.00
2023-04-18T04:36:42.066Z,52.00
2023-04-18T04:37:41.941Z,60.00
2023-04-18T04:38:41.889Z,60.00
2023-04-18T04:39:41.878Z,64.00
2023-04-18T04:40:41.862Z,64.00
2023-04-18T04:41:41.858Z,84.00
2023-04-18T04:42:41.849Z,80.00
2023-04-18T04:43:41.800Z,84.00
2023-04-18T04:44:41.859Z,104.00
2023-04-18T04:45:41.776Z,128.00
2023-04-18T04:46:41.753Z,128.00
2023-04-18T04:47:41.823Z,120.00
2023-04-18T04:48:41.730Z,116.00
2023-04-18T04:49:41.704Z,132.00
2023-04-18T04:50:41.684Z,140.00
2023-04-18T04:51:41.656Z,152.00
2023-04-18T04:52:41.653Z,144.00
2023-04-18T04:53:41.630Z,152.00
2023-04-18T04:54:41.607Z,148.00
2023-04-18T04:55:41.590Z,140.00
2023-04-18T04:56:41.573Z,164.00
2023-04-18T04:57:41.552Z,172.00
2023-04-18T04:58:41.568Z,200.00
2023-04-18T04:59:41.527Z,184.00
2023-04-18T05:00:41.502Z,152.00
2023-04-18T05:01:41.581Z,152.00
2023-04-18T05:02:41.595Z,156.00
2023-04-18T05:03:41.542Z,164.00
2023-04-18T05:04:41.499Z,144.00
2023-04-18T05:05:41.410Z,180.00
2023-04-18T05:06:41.394Z,172.00
2023-04-18T05:07:41.405Z,208.00
2023-04-18T05:08:41.360Z,228.00
2023-04-18T05:09:41.374Z,212.00
2023-04-18T05:10:41.324Z,208.00
2023-04-18T05:11:41.317Z,224.00
2023-04-18T05:12:41.359Z,192.00
2023-04-18T05:13:41.270Z,196.00
2023-04-18T05:14:41.259Z,180.00
2023-04-18T05:15:41.242Z,172.00
2023-04-18T05:16:41.276Z,188.00
2023-04-18T05:17:41.242Z,216.00
2023-04-18T05:18:41.212Z,220.00
2023-04-18T05:19:41.168Z,240.00
2023-04-18T05:20:41.147Z,220.00
2023-04-18T05:21:41.139Z,208.00
2023-04-18T05:22:41.111Z,204.00
2023-04-18T05:23:41.116Z,208.00
2023-04-18T05:24:41.101Z,200.00
2023-04-18T05:25:41.061Z,188.00
2023-04-18T05:26:41.037Z,196.00
2023-04-18T05:27:41.025Z,196.00
2023-04-18T05:28:41.051Z,184.00
2023-04-18T05:29:41.014Z,180.00
2023-04-18T05:30:40.987Z,184.00
2023-04-18T05:31:40.967Z,192.00
2023-04-18T05:32:40.978Z,228.00
2023-04-18T05:33:40.921Z,224.00
2023-04-18T05:34:40.945Z,228.00
2023-04-18T05:35:40.883Z,224.00
2023-04-18T05:36:40.860Z,232.00
2023-04-18T05:37:40.875Z,256.00
2023-04-18T05:38:40.823Z,252.00
2023-04-18T05:39:40.814Z,220.00
2023-04-18T05:40:40.801Z,212.00
2023-04-18T05:41:40.793Z,224.00
2023-04-18T05:42:40.815Z,228.00
2023-04-18T05:43:41.786Z,236.00
2023-04-18T05:44:40.747Z,216.00
2023-04-18T05:45:40.778Z,212.00
2023-04-18T05:46:40.762Z,248.00
2023-04-18T05:47:40.709Z,288.00
2023-04-18T05:48:40.648Z,312.00
2023-04-18T05:49:40.638Z,280.00
2023-04-18T05:50:40.616Z,296.00
2023-04-18T05:51:40.649Z,316.00
2023-04-18T05:52:40.588Z,428.00
2023-04-18T05:53:40.558Z,464.00
2023-04-18T05:54:40.561Z,428.00
2023-04-18T05:55:40.582Z,460.00
2023-04-18T05:56:40.628Z,536.00
2023-04-18T05:57:40.505Z,492.00
2023-04-18T05:58:40.470Z,568.00
2023-04-18T05:59:40.464Z,656.00
2023-04-18T06:00:40.435Z,704.00
2023-04-18T06:01:40.466Z,640.00
2023-04-18T06:02:40.550Z,640.00
2023-04-18T06:03:40.592Z,704.00
2023-04-18T06:04:40.508Z,760.00
2023-04-18T06:05:40.500Z,928.00
2023-04-18T06:06:40.355Z,1132.00
2023-04-18T06:07:40.311Z,1464.00
2023-04-18T06:08:40.335Z,1340.00
2023-04-18T06:09:40.275Z,996.00
2023-04-18T06:10:40.272Z,904.00
2023-04-18T06:11:40.238Z,876.00
2023-04-18T06:12:40.291Z,900.00
2023-04-18T06:13:40.241Z,960.00
2023-04-18T06:14:40.185Z,1048.00
2023-04-18T06:15:40.174Z,864.00
2023-04-18T06:16:40.172Z,788.00
2023-04-18T06:17:40.178Z,676.00
2023-04-18T06:18:40.147Z,616.00
2023-04-18T06:19:40.097Z,596.00
2023-04-18T06:20:40.078Z,576.00
2023-04-18T06:21:40.064Z,632.00
2023-04-18T06:22:40.093Z,708.00
2023-04-18T06:23:40.077Z,792.00
2023-04-18T06:24:40.010Z,728.00
2023-04-18T06:25:39.992Z,828.00
2023-04-18T06:26:39.974Z,940.00
2023-04-18T06:27:39.959Z,900.00
2023-04-18T06:28:39.967Z,1016.00
2023-04-18T06:29:39.924Z,1096.00
2023-04-18T06:30:39.912Z,1152.00
2023-04-18T06:31:39.914Z,1172.00
2023-04-18T06:32:39.889Z,1108.00
2023-04-18T06:33:39.874Z,1092.00
2023-04-18T06:34:39.830Z,1284.00
2023-04-18T06:35:39.815Z,1408.00
2023-04-18T06:36:39.803Z,1108.00
2023-04-18T06:37:39.791Z,1100.00
2023-04-18T06:38:39.785Z,1136.00
2023-04-18T06:39:39.749Z,960.00
2023-04-18T06:40:39.748Z,1064.00
2023-04-18T06:41:39.709Z,1092.00
2023-04-18T06:42:39.696Z,1088.00
2023-04-18T06:43:44.379Z,1368.00
2023-04-18T06:44:39.668Z,1360.00
2023-04-18T06:45:39.685Z,1524.00
2023-04-18T06:46:39.619Z,1364.00
2023-04-18T06:47:39.644Z,1164.00
2023-04-18T06:48:39.650Z,1188.00
2023-04-18T06:49:39.570Z,1360.00
2023-04-18T06:50:39.550Z,1300.00
2023-04-18T06:51:39.540Z,1364.00
2023-04-18T06:52:39.514Z,1412.00
2023-04-18T06:53:39.498Z,1332.00
2023-04-18T06:54:39.525Z,1788.00
2023-04-18T06:55:39.468Z,1904.00
2023-04-18T06:56:39.450Z,2020.00
2023-04-18T06:57:39.428Z,2164.00
2023-04-18T06:58:39.410Z,2092.00
2023-04-18T06:59:39.457Z,2188.00
2023-04-18T07:00:39.434Z,1924.00
2023-04-18T07:01:39.457Z,1552.00
2023-04-18T07:02:39.472Z,1604.00
2023-04-18T07:03:39.524Z,1636.00
2023-04-18T07:04:39.417Z,1980.00
2023-04-18T07:05:39.299Z,1908.00
2023-04-18T07:06:39.266Z,2312.00
2023-04-18T07:07:39.269Z,2332.00
2023-04-18T07:08:39.243Z,2396.00
2023-04-18T07:09:39.220Z,2356.00
2023-04-18T07:10:39.265Z,2200.00
2023-04-18T07:11:39.211Z,2188.00
2023-04-18T07:12:39.167Z,2080.00
2023-04-18T07:13:39.191Z,1832.00
2023-04-18T07:14:39.131Z,1584.00
2023-04-18T07:15:39.137Z,1396.00
2023-04-18T07:16:39.161Z,1524.00
2023-04-18T07:17:39.130Z,1704.00
2023-04-18T07:18:39.056Z,1664.00
2023-04-18T07:19:39.042Z,1736.00
2023-04-18T07:20:39.031Z,1924.00
2023-04-18T07:21:39.008Z,1952.00
2023-04-18T07:22:38.996Z,2116.00
2023-04-18T07:23:38.976Z,2244.00
2023-04-18T07:24:38.961Z,2652.00
2023-04-18T07:25:38.986Z,2608.00
2023-04-18T07:26:38.939Z,3032.00
2023-04-18T07:27:38.923Z,2616.00
2023-04-18T07:28:38.899Z,2496.00
2023-04-18T07:29:38.870Z,2808.00
2023-04-18T07:30:38.908Z,2716.00
2023-04-18T07:31:38.867Z,2784.00
2023-04-18T07:32:38.964Z,2980.00
2023-04-18T07:33:38.821Z,2540.00
2023-04-18T07:34:38.787Z,2696.00
2023-04-18T07:35:38.770Z,2512.00
2023-04-18T07:36:38.778Z,2548.00
2023-04-18T07:37:38.753Z,2836.00
2023-04-18T07:38:38.720Z,2716.00
2023-04-18T07:39:38.700Z,2348.00
2023-04-18T07:40:38.683Z,2100.00
2023-04-18T07:41:38.679Z,2304.00
2023-04-18T07:42:38.662Z,2884.00
2023-04-18T07:43:38.640Z,3012.00
2023-04-18T07:44:38.621Z,2672.00
2023-04-18T07:45:38.619Z,2624.00
2023-04-18T07:46:38.697Z,2620.00
2023-04-18T07:47:38.675Z,2744.00
2023-04-18T07:48:38.569Z,2652.00
2023-04-18T07:49:38.539Z,2204.00
2023-04-18T07:50:38.594Z,2352.00
2023-04-18T07:51:38.501Z,2588.00
2023-04-18T07:52:39.573Z,2768.00
2023-04-18T07:53:38.495Z,3312.00
2023-04-18T07:54:38.455Z,3552.00
2023-04-18T07:55:38.437Z,3284.00
2023-04-18T07:56:38.418Z,3460.00
2023-04-18T07:57:38.404Z,3216.00
2023-04-18T07:58:38.416Z,3044.00
2023-04-18T07:59:38.368Z,3212.00
2023-04-18T08:00:38.350Z,3072.00
2023-04-18T08:01:38.340Z,3276.00
2023-04-18T08:02:38.463Z,3272.00
2023-04-18T08:03:38.395Z,3728.00
2023-04-18T08:04:38.756Z,3212.00
2023-04-18T08:05:38.288Z,3276.00
2023-04-18T08:06:38.258Z,2992.00
2023-04-18T08:07:38.232Z,2824.00
2023-04-18T08:08:38.223Z,3080.00
2023-04-18T08:09:38.230Z,3092.00
2023-04-18T08:10:38.178Z,2808.00
2023-04-18T08:11:38.176Z,2696.00
2023-04-18T08:12:38.149Z,3284.00
2023-04-18T08:13:38.137Z,3180.00
2023-04-18T08:14:38.168Z,3724.00
2023-04-18T08:15:38.110Z,4068.00
2023-04-18T08:16:38.193Z,3364.00
2023-04-18T08:17:38.106Z,2696.00
2023-04-18T08:18:38.051Z,2312.00
2023-04-18T08:19:38.060Z,2900.00
2023-04-18T08:20:38.099Z,3056.00
2023-04-18T08:21:38.000Z,2708.00
2023-04-18T08:22:46.946Z,2820.00
2023-04-18T08:23:37.973Z,2952.00
2023-04-18T08:24:37.955Z,2624.00
2023-04-18T08:25:37.970Z,2736.00
2023-04-18T08:26:37.923Z,2484.00
2023-04-18T08:27:37.936Z,2444.00
2023-04-18T08:28:37.888Z,2296.00
2023-04-18T08:29:37.923Z,2620.00
2023-04-18T08:30:37.852Z,3032.00
2023-04-18T08:31:37.923Z,2780.00
2023-04-18T08:32:37.846Z,2496.00
2023-04-18T08:33:37.809Z,2240.00
2023-04-18T08:34:37.786Z,1980.00
2023-04-18T08:35:37.809Z,1912.00
2023-04-18T08:36:37.773Z,2000.00
2023-04-18T08:37:37.746Z,2276.00
2023-04-18T08:38:37.739Z,2040.00
2023-04-18T08:39:37.751Z,2100.00
2023-04-18T08:40:37.699Z,2112.00
2023-04-18T08:41:37.672Z,2160.00
2023-04-18T08:42:37.656Z,2140.00
2023-04-18T08:43:37.639Z,2060.00
2023-04-18T08:44:37.626Z,2068.00
2023-04-18T08:45:37.725Z,2208.00
2023-04-18T08:46:37.594Z,2560.00
2023-04-18T08:47:37.614Z,2104.00
2023-04-18T08:48:37.558Z,2248.00
2023-04-18T08:49:37.572Z,2444.00
2023-04-18T08:50:37.554Z,2488.00
2023-04-18T08:51:37.510Z,2664.00
2023-04-18T08:52:37.558Z,2120.00
2023-04-18T08:53:37.476Z,2516.00
2023-04-18T08:54:37.484Z,2708.00
2023-04-18T08:55:37.510Z,2300.00
2023-04-18T08:56:37.445Z,1964.00
2023-04-18T08:57:37.431Z,2128.00
2023-04-18T08:58:37.398Z,2580.00
2023-04-18T08:59:37.373Z,2748.00
2023-04-18T09:00:37.359Z,2916.00
2023-04-18T09:01:37.431Z,3092.00
2023-04-18T09:02:37.365Z,3100.00
2023-04-18T09:03:37.462Z,3120.00
2023-04-18T09:04:37.339Z,3352.00
2023-04-18T09:05:37.337Z,3344.00
2023-04-18T09:06:37.262Z,2536.00
2023-04-18T09:07:37.241Z,3188.00
2023-04-18T09:08:37.329Z,3456.00
2023-04-18T09:09:37.208Z,3324.00
2023-04-18T09:10:37.201Z,2696.00
2023-04-18T09:11:37.180Z,2328.00
2023-04-18T09:12:37.193Z,2288.00
2023-04-18T09:13:37.165Z,2308.00
2023-04-18T09:14:37.129Z,2328.00
2023-04-18T09:15:37.111Z,2516.00
2023-04-18T09:16:37.121Z,2652.00
2023-04-18T09:17:37.158Z,2280.00
2023-04-18T09:18:37.076Z,2372.00
2023-04-18T09:19:37.061Z,2548.00
2023-04-18T09:20:37.037Z,2352.00
2023-04-18T09:21:37.089Z,2216.00
2023-04-18T09:22:38.990Z,2264.00
2023-04-18T09:23:36.987Z,2396.00
2023-04-18T09:24:37.017Z,2408.00
2023-04-18T09:25:37.941Z,2384.00
2023-04-18T09:26:36.938Z,2524.00
2023-04-18T09:27:36.944Z,2596.00
2023-04-18T09:28:36.934Z,2576.00
2023-04-18T09:29:36.893Z,2912.00
2023-04-18T09:30:36.986Z,3616.00
2023-04-18T09:31:36.860Z,3400.00
2023-04-18T09:32:36.904Z,3416.00
2023-04-18T09:33:36.862Z,3300.00
2023-04-18T09:34:36.808Z,3480.00
2023-04-18T09:35:36.792Z,3380.00
2023-04-18T09:36:36.887Z,3036.00
2023-04-18T09:37:36.792Z,2856.00
2023-04-18T09:38:36.759Z,2932.00
2023-04-18T09:39:36.754Z,2964.00
2023-04-18T09:40:36.751Z,2796.00
2023-04-18T09:41:36.708Z,2784.00
2023-04-18T09:42:36.692Z,2960.00
2023-04-18T09:43:36.668Z,3056.00
2023-04-18T09:44:36.682Z,3044.00
2023-04-18T09:45:36.644Z,3284.00
2023-04-18T09:46:36.696Z,3488.00
2023-04-18T09:47:36.776Z,3952.00
2023-04-18T09:48:36.598Z,3708.00
2023-04-18T09:49:36.625Z,3748.00
2023-04-18T09:50:36.556Z,3604.00
2023-04-18T09:51:36.539Z,3756.00
2023-04-18T09:52:36.531Z,3660.00
2023-04-18T09:53:36.506Z,3692.00
2023-04-18T09:54:36.506Z,3680.00
2023-04-18T09:55:36.486Z,3744.00
2023-04-18T09:56:36.514Z,4036.00
2023-04-18T09:57:36.457Z,4608.00
2023-04-18T09:58:36.430Z,4308.00
2023-04-18T09:59:36.410Z,3504.00
2023-04-18T10:00:36.413Z,3212.00
2023-04-18T10:01:36.474Z,3928.00
2023-04-18T10:02:36.433Z,3820.00
2023-04-18T10:03:36.456Z,3800.00
2023-04-18T10:04:36.489Z,3228.00
2023-04-18T10:05:36.500Z,2828.00
2023-04-18T10:06:36.302Z,2960.00
2023-04-18T10:07:36.283Z,2836.00
2023-04-18T10:08:36.277Z,2636.00
2023-04-18T10:09:36.254Z,2860.00
2023-04-18T10:10:37.932Z,3060.00
2023-04-18T10:11:36.220Z,3236.00
2023-04-18T10:12:36.277Z,3828.00
2023-04-18T10:13:36.211Z,4404.00
2023-04-18T10:14:36.175Z,3896.00
2023-04-18T10:15:36.208Z,3848.00
2023-04-18T10:16:36.477Z,4216.00
2023-04-18T10:17:36.162Z,4364.00
2023-04-18T10:18:36.149Z,3708.00
2023-04-18T10:19:36.097Z,3544.00
2023-04-18T10:20:36.254Z,3424.00
2023-04-18T10:21:36.068Z,3592.00
2023-04-18T10:22:36.050Z,3864.00
2023-04-18T10:23:36.103Z,3736.00
2023-04-18T10:24:36.022Z,4204.00
2023-04-18T10:25:36.062Z,4588.00
2023-04-18T10:26:36.002Z,4448.00
2023-04-18T10:27:35.974Z,4228.00
2023-04-18T10:28:36.095Z,4112.00
2023-04-18T10:29:35.957Z,4016.00
2023-04-18T10:30:35.932Z,3820.00
2023-04-18T10:31:35.962Z,4216.00
2023-04-18T10:32:35.941Z,4288.00
2023-04-18T10:33:36.012Z,4108.00
2023-04-18T10:34:35.899Z,3852.00
2023-04-18T10:35:35.854Z,3808.00
2023-04-18T10:36:35.878Z,3772.00
2023-04-18T10:37:35.819Z,3708.00
2023-04-18T10:38:35.812Z,3664.00
2023-04-18T10:39:35.814Z,3748.00
2023-04-18T10:40:35.782Z,3920.00
2023-04-18T10:41:35.806Z,4028.00
2023-04-18T10:42:35.748Z,4264.00
2023-04-18T10:43:35.732Z,4308.00
2023-04-18T10:44:35.725Z,4692.00
2023-04-18T10:45:35.717Z,5436.00
2023-04-18T10:46:35.741Z,5828.00
2023-04-18T10:47:35.922Z,6080.00
2023-04-18T10:48:38.595Z,5700.00
2023-04-18T10:49:35.639Z,5788.00
2023-04-18T10:50:35.623Z,6068.00
2023-04-18T10:51:35.611Z,5576.00
2023-04-18T10:52:35.657Z,5376.00
2023-04-18T10:53:35.579Z,4896.00
2023-04-18T10:54:35.572Z,4648.00
2023-04-18T10:55:35.555Z,4400.00
2023-04-18T10:56:35.559Z,4672.00
2023-04-18T10:57:35.520Z,5140.00
2023-04-18T10:58:35.532Z,5352.00
2023-04-18T10:59:35.499Z,4892.00
2023-04-18T11:00:35.538Z,4900.00
2023-04-18T11:01:35.577Z,4992.00
2023-04-18T11:02:35.640Z,5140.00
2023-04-18T11:03:35.561Z,4948.00
2023-04-18T11:04:35.604Z,5780.00
2023-04-18T11:05:35.419Z,10968.00
2023-04-18T11:06:35.390Z,5532.00
2023-04-18T11:07:35.375Z,5136.00
2023-04-18T11:08:35.391Z,5144.00
2023-04-18T11:09:35.354Z,6024.00
2023-04-18T11:10:35.333Z,6128.00
2023-04-18T11:11:35.313Z,6340.00
2023-04-18T11:12:36.325Z,6668.00
2023-04-18T11:13:35.313Z,6424.00
2023-04-18T11:14:35.271Z,6116.00
2023-04-18T11:15:35.254Z,6464.00
2023-04-18T11:16:35.294Z,6564.00
2023-04-18T11:17:35.246Z,6580.00
2023-04-18T11:18:35.249Z,6756.00
2023-04-18T11:19:35.199Z,6732.00
2023-04-18T11:20:35.185Z,6492.00
2023-04-18T11:21:35.194Z,6612.00
2023-04-18T11:22:35.205Z,6440.00
2023-04-18T11:23:35.189Z,6508.00
2023-04-18T11:24:35.144Z,6532.00
2023-04-18T11:25:35.115Z,6320.00
2023-04-18T11:26:35.726Z,6764.00
2023-04-18T11:27:35.100Z,6752.00
2023-04-18T11:28:35.076Z,6524.00
2023-04-18T11:29:35.064Z,6636.00
2023-04-18T11:30:35.047Z,6236.00
2023-04-18T11:31:35.079Z,5632.00
2023-04-18T11:32:35.223Z,5384.00
2023-04-18T11:33:35.012Z,5472.00
2023-04-18T11:34:35.016Z,5900.00
2023-04-18T11:35:34.973Z,5740.00
2023-04-18T11:36:34.978Z,5452.00
2023-04-18T11:37:34.966Z,5588.00
2023-04-18T11:38:34.934Z,5568.00
2023-04-18T11:39:34.926Z,5716.00
2023-04-18T11:40:34.904Z,5912.00
2023-04-18T11:41:34.893Z,5032.00
2023-04-18T11:42:34.896Z,4828.00
2023-04-18T11:43:34.865Z,5068.00
2023-04-18T11:44:36.282Z,5160.00
2023-04-18T11:45:34.839Z,5264.00
2023-04-18T11:46:34.914Z,5756.00
2023-04-18T11:47:34.817Z,5780.00
2023-04-18T11:48:34.808Z,5152.00
2023-04-18T11:49:34.786Z,4788.00
2023-04-18T11:50:34.765Z,4464.00
2023-04-18T11:51:34.760Z,4356.00
2023-04-18T11:52:34.766Z,4248.00
2023-04-18T11:53:34.725Z,4316.00
2023-04-18T11:54:34.706Z,4152.00
2023-04-18T11:55:34.702Z,4268.00
2023-04-18T11:56:36.658Z,4496.00
2023-04-18T11:57:34.676Z,4220.00
2023-04-18T11:58:34.720Z,4232.00
2023-04-18T11:59:34.636Z,4436.00
2023-04-18T12:00:34.618Z,4820.00
2023-04-18T12:01:34.600Z,5040.00
2023-04-18T12:02:34.777Z,4888.00
2023-04-18T12:03:34.897Z,4736.00
2023-04-18T12:04:35.014Z,4764.00
2023-04-18T12:05:34.889Z,5076.00
2023-04-18T12:06:34.548Z,5280.00
2023-04-18T12:07:34.515Z,4956.00
2023-04-18T12:08:34.506Z,5148.00
2023-04-18T12:09:34.489Z,4980.00
2023-04-18T12:10:34.507Z,4876.00
2023-04-18T12:11:34.457Z,4880.00
2023-04-18T12:12:34.445Z,5248.00
2023-04-18T12:13:34.433Z,5496.00
2023-04-18T12:14:34.468Z,5804.00
2023-04-18T12:15:34.397Z,5784.00
2023-04-18T12:16:34.436Z,5540.00
2023-04-18T12:17:34.404Z,5376.00
2023-04-18T12:18:34.369Z,4488.00
2023-04-18T12:19:34.345Z,4456.00
2023-04-18T12:20:34.488Z,4572.00
2023-04-18T12:21:34.314Z,5460.00
2023-04-18T12:22:34.301Z,6140.00
2023-04-18T12:23:34.315Z,6316.00
2023-04-18T12:24:34.272Z,8188.00
2023-04-18T12:25:34.267Z,9396.00
2023-04-18T12:26:34.273Z,3932.00
2023-04-18T12:27:34.238Z,3868.00
2023-04-18T12:28:34.213Z,3712.00
2023-04-18T12:29:34.212Z,3920.00
2023-04-18T12:30:37.362Z,17856.00
2023-04-18T12:31:34.240Z,16544.00
2023-04-18T12:32:34.159Z,13668.00
2023-04-18T12:33:34.155Z,4160.00